sensor_id;sensor_type;location;lat;lon;timestamp;P1;durP1;ratioP1;P2;durP2;ratioP2
40609;SDS011;26316;55.976;37.140;2022-12-07T00:03:34;3.45;;;2.80;;
40609;SDS011;26316;55.976;37.140;2022-12-07T00:06:01;3.38;;;2.80;;
40609;SDS011;26316;55.976;37.140;2022-12-07T00:08:28;3.53;;;3.03;;
40609;SDS011;26316;55.976;37.140;2022-12-07T00:10:55;3.05;;;2.85;;
40609;SDS011;26316;55.976;37.140;2022-12-07T00:13:20;3.30;;;3.00;;
40609;SDS011;26316;55.976;37.140;2022-12-07T00:15:46;5.03;;;2.97;;
40609;SDS011;26316;55.976;37.140;2022-12-07T00:18:12;4.60;;;3.13;;
40609;SDS011;26316;55.976;37.140;2022-12-07T00:20:37;3.30;;;2.97;;
40609;SDS011;26316;55.976;37.140;2022-12-07T00:23:03;3.50;;;3.20;;
40609;SDS011;26316;55.976;37.140;2022-12-07T00:25:29;3.75;;;3.33;;
40609;SDS011;26316;55.976;37.140;2022-12-07T00:27:55;3.33;;;3.00;;
40609;SDS011;26316;55.976;37.140;2022-12-07T00:30:22;2.88;;;2.60;;
40609;SDS011;26316;55.976;37.140;2022-12-07T00:32:48;3.30;;;2.80;;
40609;SDS011;26316;55.976;37.140;2022-12-07T00:35:14;3.00;;;2.70;;
40609;SDS011;26316;55.976;37.140;2022-12-07T00:37:39;3.67;;;2.90;;
40609;SDS011;26316;55.976;37.140;2022-12-07T00:40:05;3.50;;;3.20;;
40609;SDS011;26316;55.976;37.140;2022-12-07T00:42:31;3.40;;;2.85;;
40609;SDS011;26316;55.976;37.140;2022-12-07T00:44:57;3.67;;;3.10;;
40609;SDS011;26316;55.976;37.140;2022-12-07T00:47:22;4.18;;;3.10;;
40609;SDS011;26316;55.976;37.140;2022-12-07T00:49:48;3.20;;;2.92;;
40609;SDS011;26316;55.976;37.140;2022-12-07T00:52:14;5.38;;;3.50;;
40609;SDS011;26316;55.976;37.140;2022-12-07T00:54:39;3.75;;;3.33;;
40609;SDS011;26316;55.976;37.140;2022-12-07T00:57:05;4.20;;;3.30;;
40609;SDS011;26316;55.976;37.140;2022-12-07T00:59:31;3.72;;;3.33;;
40609;SDS011;26316;55.976;37.140;2022-12-07T01:01:57;3.40;;;3.10;;
40609;SDS011;26316;55.976;37.140;2022-12-07T01:04:22;4.22;;;3.25;;
40609;SDS011;26316;55.976;37.140;2022-12-07T01:06:48;3.33;;;3.03;;
40609;SDS011;26316;55.976;37.140;2022-12-07T01:09:14;5.22;;;3.50;;
40609;SDS011;26316;55.976;37.140;2022-12-07T01:11:39;3.38;;;2.92;;
40609;SDS011;26316;55.976;37.140;2022-12-07T01:14:05;4.32;;;3.45;;
40609;SDS011;26316;55.976;37.140;2022-12-07T01:16:31;5.43;;;3.55;;
40609;SDS011;26316;55.976;37.140;2022-12-07T01:18:58;3.92;;;3.17;;
40609;SDS011;26316;55.976;37.140;2022-12-07T01:21:26;3.50;;;3.20;;
40609;SDS011;26316;55.976;37.140;2022-12-07T01:23:57;4.35;;;3.30;;
40609;SDS011;26316;55.976;37.140;2022-12-07T01:26:24;3.97;;;3.40;;
40609;SDS011;26316;55.976;37.140;2022-12-07T01:28:50;3.30;;;3.00;;
40609;SDS011;26316;55.976;37.140;2022-12-07T01:31:17;2.95;;;2.75;;
40609;SDS011;26316;55.976;37.140;2022-12-07T01:33:45;6.97;;;3.55;;
40609;SDS011;26316;55.976;37.140;2022-12-07T01:38:45;3.95;;;3.22;;
40609;SDS011;26316;55.976;37.140;2022-12-07T01:41:13;3.63;;;3.33;;
40609;SDS011;26316;55.976;37.140;2022-12-07T01:46:34;3.33;;;3.00;;
40609;SDS011;26316;55.976;37.140;2022-12-07T01:48:59;4.20;;;3.80;;
40609;SDS011;26316;55.976;37.140;2022-12-07T01:51:26;5.28;;;3.95;;
40609;SDS011;26316;55.976;37.140;2022-12-07T01:53:51;5.93;;;3.70;;
40609;SDS011;26316;55.976;37.140;2022-12-07T01:56:18;4.50;;;3.45;;
40609;SDS011;26316;55.976;37.140;2022-12-07T01:58:46;3.80;;;3.28;;
40609;SDS011;26316;55.976;37.140;2022-12-07T02:01:12;3.42;;;3.00;;
40609;SDS011;26316;55.976;37.140;2022-12-07T02:03:39;4.68;;;3.75;;
40609;SDS011;26316;55.976;37.140;2022-12-07T02:06:07;5.53;;;3.47;;
40609;SDS011;26316;55.976;37.140;2022-12-07T02:08:33;4.88;;;3.83;;
40609;SDS011;26316;55.976;37.140;2022-12-07T02:11:00;5.65;;;3.58;;
40609;SDS011;26316;55.976;37.140;2022-12-07T02:13:30;3.78;;;3.40;;
40609;SDS011;26316;55.976;37.140;2022-12-07T02:21:39;3.72;;;3.42;;
40609;SDS011;26316;55.976;37.140;2022-12-07T02:29:39;3.58;;;3.28;;
40609;SDS011;26316;55.976;37.140;2022-12-07T02:35:09;6.22;;;3.95;;
40609;SDS011;26316;55.976;37.140;2022-12-07T02:40:35;4.03;;;3.63;;
40609;SDS011;26316;55.976;37.140;2022-12-07T02:43:09;4.45;;;3.72;;
40609;SDS011;26316;55.976;37.140;2022-12-07T02:45:40;4.80;;;3.72;;
40609;SDS011;26316;55.976;37.140;2022-12-07T02:48:07;5.03;;;4.10;;
40609;SDS011;26316;55.976;37.140;2022-12-07T02:50:34;4.43;;;4.03;;
40609;SDS011;26316;55.976;37.140;2022-12-07T02:53:00;6.25;;;4.13;;
40609;SDS011;26316;55.976;37.140;2022-12-07T02:55:27;4.13;;;3.83;;
40609;SDS011;26316;55.976;37.140;2022-12-07T03:00:35;5.85;;;4.38;;
40609;SDS011;26316;55.976;37.140;2022-12-07T03:03:19;5.43;;;4.55;;
40609;SDS011;26316;55.976;37.140;2022-12-07T03:08:51;4.80;;;4.22;;
40609;SDS011;26316;55.976;37.140;2022-12-07T03:13:58;4.57;;;4.00;;
40609;SDS011;26316;55.976;37.140;2022-12-07T03:19:13;4.65;;;4.15;;
40609;SDS011;26316;55.976;37.140;2022-12-07T03:21:46;4.70;;;4.30;;
40609;SDS011;26316;55.976;37.140;2022-12-07T03:24:51;6.03;;;4.28;;
40609;SDS011;26316;55.976;37.140;2022-12-07T03:27:16;6.32;;;4.63;;
40609;SDS011;26316;55.976;37.140;2022-12-07T03:29:46;7.47;;;5.43;;
40609;SDS011;26316;55.976;37.140;2022-12-07T03:35:17;5.28;;;4.38;;
40609;SDS011;26316;55.976;37.140;2022-12-07T03:37:56;5.43;;;4.33;;
40609;SDS011;26316;55.976;37.140;2022-12-07T03:42:50;4.90;;;4.45;;
40609;SDS011;26316;55.976;37.140;2022-12-07T03:45:17;5.25;;;4.55;;
40609;SDS011;26316;55.976;37.140;2022-12-07T03:47:47;5.40;;;4.65;;
40609;SDS011;26316;55.976;37.140;2022-12-07T03:53:09;9.43;;;5.00;;
40609;SDS011;26316;55.976;37.140;2022-12-07T03:55:41;6.50;;;5.20;;
40609;SDS011;26316;55.976;37.140;2022-12-07T03:58:12;6.85;;;5.00;;
40609;SDS011;26316;55.976;37.140;2022-12-07T04:00:42;8.15;;;5.05;;
40609;SDS011;26316;55.976;37.140;2022-12-07T04:03:08;9.38;;;5.40;;
40609;SDS011;26316;55.976;37.140;2022-12-07T04:05:34;5.70;;;4.95;;
40609;SDS011;26316;55.976;37.140;2022-12-07T04:08:00;9.63;;;5.72;;
40609;SDS011;26316;55.976;37.140;2022-12-07T04:10:25;7.10;;;5.60;;
40609;SDS011;26316;55.976;37.140;2022-12-07T04:12:51;9.27;;;5.10;;
40609;SDS011;26316;55.976;37.140;2022-12-07T04:15:17;7.25;;;5.70;;
40609;SDS011;26316;55.976;37.140;2022-12-07T04:17:42;7.13;;;5.78;;
40609;SDS011;26316;55.976;37.140;2022-12-07T04:20:08;8.77;;;6.40;;
40609;SDS011;26316;55.976;37.140;2022-12-07T04:22:34;10.45;;;8.45;;
40609;SDS011;26316;55.976;37.140;2022-12-07T04:25:00;12.35;;;11.05;;
40609;SDS011;26316;55.976;37.140;2022-12-07T04:27:26;18.88;;;13.10;;
40609;SDS011;26316;55.976;37.140;2022-12-07T04:29:51;15.70;;;11.73;;
40609;SDS011;26316;55.976;37.140;2022-12-07T04:32:17;18.50;;;10.63;;
40609;SDS011;26316;55.976;37.140;2022-12-07T04:34:42;15.07;;;10.02;;
40609;SDS011;26316;55.976;37.140;2022-12-07T04:37:08;14.07;;;10.20;;
40609;SDS011;26316;55.976;37.140;2022-12-07T04:39:34;11.43;;;8.85;;
40609;SDS011;26316;55.976;37.140;2022-12-07T04:41:59;12.07;;;8.65;;
40609;SDS011;26316;55.976;37.140;2022-12-07T04:44:26;10.57;;;7.28;;
40609;SDS011;26316;55.976;37.140;2022-12-07T04:46:52;9.95;;;7.28;;
40609;SDS011;26316;55.976;37.140;2022-12-07T04:49:19;10.43;;;7.00;;
40609;SDS011;26316;55.976;37.140;2022-12-07T04:51:45;11.95;;;6.57;;
40609;SDS011;26316;55.976;37.140;2022-12-07T04:54:12;7.45;;;6.18;;
40609;SDS011;26316;55.976;37.140;2022-12-07T04:56:38;7.88;;;6.18;;
40609;SDS011;26316;55.976;37.140;2022-12-07T04:59:04;9.95;;;5.95;;
40609;SDS011;26316;55.976;37.140;2022-12-07T05:01:30;7.78;;;6.07;;
40609;SDS011;26316;55.976;37.140;2022-12-07T05:03:56;11.95;;;6.10;;
40609;SDS011;26316;55.976;37.140;2022-12-07T05:06:22;7.45;;;5.78;;
40609;SDS011;26316;55.976;37.140;2022-12-07T05:08:48;7.70;;;5.72;;
40609;SDS011;26316;55.976;37.140;2022-12-07T05:11:13;10.48;;;5.53;;
40609;SDS011;26316;55.976;37.140;2022-12-07T05:14:00;10.88;;;6.25;;
40609;SDS011;26316;55.976;37.140;2022-12-07T05:16:26;9.45;;;5.97;;
40609;SDS011;26316;55.976;37.140;2022-12-07T05:18:51;9.00;;;5.90;;
40609;SDS011;26316;55.976;37.140;2022-12-07T05:21:17;8.65;;;5.45;;
40609;SDS011;26316;55.976;37.140;2022-12-07T05:23:43;10.27;;;5.72;;
40609;SDS011;26316;55.976;37.140;2022-12-07T05:26:09;8.20;;;5.70;;
40609;SDS011;26316;55.976;37.140;2022-12-07T05:28:35;8.82;;;5.95;;
40609;SDS011;26316;55.976;37.140;2022-12-07T05:31:00;8.68;;;6.07;;
40609;SDS011;26316;55.976;37.140;2022-12-07T05:33:26;7.35;;;6.18;;
40609;SDS011;26316;55.976;37.140;2022-12-07T05:35:52;12.60;;;5.15;;
40609;SDS011;26316;55.976;37.140;2022-12-07T05:38:18;10.07;;;5.78;;
40609;SDS011;26316;55.976;37.140;2022-12-07T05:40:43;7.90;;;5.97;;
40609;SDS011;26316;55.976;37.140;2022-12-07T05:43:09;9.77;;;5.97;;
40609;SDS011;26316;55.976;37.140;2022-12-07T05:45:35;10.30;;;6.65;;
40609;SDS011;26316;55.976;37.140;2022-12-07T05:48:01;10.50;;;6.43;;
40609;SDS011;26316;55.976;37.140;2022-12-07T05:50:26;9.52;;;6.53;;
40609;SDS011;26316;55.976;37.140;2022-12-07T05:52:59;8.13;;;6.63;;
40609;SDS011;26316;55.976;37.140;2022-12-07T05:55:25;8.63;;;6.05;;
40609;SDS011;26316;55.976;37.140;2022-12-07T05:57:50;9.20;;;6.75;;
40609;SDS011;26316;55.976;37.140;2022-12-07T06:00:48;10.48;;;7.40;;
40609;SDS011;26316;55.976;37.140;2022-12-07T06:03:14;9.50;;;6.90;;
40609;SDS011;26316;55.976;37.140;2022-12-07T06:05:40;9.32;;;7.38;;
40609;SDS011;26316;55.976;37.140;2022-12-07T06:08:07;10.20;;;7.03;;
40609;SDS011;26316;55.976;37.140;2022-12-07T06:10:32;12.75;;;7.07;;
40609;SDS011;26316;55.976;37.140;2022-12-07T06:12:58;10.38;;;6.90;;
40609;SDS011;26316;55.976;37.140;2022-12-07T06:15:30;8.68;;;6.68;;
40609;SDS011;26316;55.976;37.140;2022-12-07T06:17:59;9.75;;;5.90;;
40609;SDS011;26316;55.976;37.140;2022-12-07T06:20:33;13.27;;;6.85;;
40609;SDS011;26316;55.976;37.140;2022-12-07T06:23:02;10.98;;;7.18;;
40609;SDS011;26316;55.976;37.140;2022-12-07T06:25:27;9.15;;;6.55;;
40609;SDS011;26316;55.976;37.140;2022-12-07T06:27:53;8.25;;;6.38;;
40609;SDS011;26316;55.976;37.140;2022-12-07T06:30:20;9.07;;;6.78;;
40609;SDS011;26316;55.976;37.140;2022-12-07T06:32:46;9.35;;;6.47;;
40609;SDS011;26316;55.976;37.140;2022-12-07T06:35:11;9.88;;;6.85;;
40609;SDS011;26316;55.976;37.140;2022-12-07T06:37:37;7.55;;;6.75;;
40609;SDS011;26316;55.976;37.140;2022-12-07T06:40:03;12.25;;;6.85;;
40609;SDS011;26316;55.976;37.140;2022-12-07T06:42:29;9.07;;;6.82;;
40609;SDS011;26316;55.976;37.140;2022-12-07T06:44:55;9.30;;;7.20;;
40609;SDS011;26316;55.976;37.140;2022-12-07T06:47:21;11.95;;;6.75;;
40609;SDS011;26316;55.976;37.140;2022-12-07T06:49:46;12.40;;;6.00;;
40609;SDS011;26316;55.976;37.140;2022-12-07T06:52:12;9.93;;;6.80;;
40609;SDS011;26316;55.976;37.140;2022-12-07T06:54:38;9.38;;;6.45;;
40609;SDS011;26316;55.976;37.140;2022-12-07T06:57:03;11.25;;;5.95;;
40609;SDS011;26316;55.976;37.140;2022-12-07T06:59:29;7.28;;;5.85;;
40609;SDS011;26316;55.976;37.140;2022-12-07T07:01:55;7.32;;;5.88;;
40609;SDS011;26316;55.976;37.140;2022-12-07T07:04:20;8.15;;;6.50;;
40609;SDS011;26316;55.976;37.140;2022-12-07T07:06:46;7.47;;;5.88;;
40609;SDS011;26316;55.976;37.140;2022-12-07T07:09:12;9.55;;;6.03;;
40609;SDS011;26316;55.976;37.140;2022-12-07T07:11:37;7.57;;;6.35;;
40609;SDS011;26316;55.976;37.140;2022-12-07T07:14:03;8.18;;;5.72;;
40609;SDS011;26316;55.976;37.140;2022-12-07T07:16:29;7.80;;;6.10;;
40609;SDS011;26316;55.976;37.140;2022-12-07T07:18:56;6.22;;;5.50;;
40609;SDS011;26316;55.976;37.140;2022-12-07T07:21:21;7.45;;;6.32;;
40609;SDS011;26316;55.976;37.140;2022-12-07T07:23:47;6.57;;;5.97;;
40609;SDS011;26316;55.976;37.140;2022-12-07T07:26:13;7.57;;;5.95;;
40609;SDS011;26316;55.976;37.140;2022-12-07T07:28:38;6.45;;;5.85;;
40609;SDS011;26316;55.976;37.140;2022-12-07T07:31:04;7.97;;;6.07;;
40609;SDS011;26316;55.976;37.140;2022-12-07T07:33:30;6.28;;;5.70;;
40609;SDS011;26316;55.976;37.140;2022-12-07T07:35:55;9.32;;;6.20;;
40609;SDS011;26316;55.976;37.140;2022-12-07T07:38:21;7.18;;;5.97;;
40609;SDS011;26316;55.976;37.140;2022-12-07T07:40:47;12.88;;;7.38;;
40609;SDS011;26316;55.976;37.140;2022-12-07T07:43:12;10.40;;;6.97;;
40609;SDS011;26316;55.976;37.140;2022-12-07T07:45:38;6.70;;;6.05;;
40609;SDS011;26316;55.976;37.140;2022-12-07T07:48:04;9.07;;;6.60;;
40609;SDS011;26316;55.976;37.140;2022-12-07T07:50:29;12.32;;;6.38;;
40609;SDS011;26316;55.976;37.140;2022-12-07T07:52:56;9.65;;;6.05;;
40609;SDS011;26316;55.976;37.140;2022-12-07T07:55:22;10.35;;;6.53;;
40609;SDS011;26316;55.976;37.140;2022-12-07T07:57:48;8.80;;;6.40;;
40609;SDS011;26316;55.976;37.140;2022-12-07T08:00:14;10.45;;;6.53;;
40609;SDS011;26316;55.976;37.140;2022-12-07T08:02:41;9.02;;;6.43;;
40609;SDS011;26316;55.976;37.140;2022-12-07T08:05:08;8.18;;;6.15;;
40609;SDS011;26316;55.976;37.140;2022-12-07T08:07:34;6.05;;;5.38;;
40609;SDS011;26316;55.976;37.140;2022-12-07T08:10:00;7.38;;;6.07;;
40609;SDS011;26316;55.976;37.140;2022-12-07T08:12:26;7.97;;;5.40;;
40609;SDS011;26316;55.976;37.140;2022-12-07T08:14:51;8.45;;;6.18;;
40609;SDS011;26316;55.976;37.140;2022-12-07T08:17:17;8.45;;;6.53;;
40609;SDS011;26316;55.976;37.140;2022-12-07T08:19:43;8.55;;;6.25;;
40609;SDS011;26316;55.976;37.140;2022-12-07T08:22:09;9.45;;;6.40;;
40609;SDS011;26316;55.976;37.140;2022-12-07T08:24:35;9.52;;;7.18;;
40609;SDS011;26316;55.976;37.140;2022-12-07T08:27:01;10.40;;;6.90;;
40609;SDS011;26316;55.976;37.140;2022-12-07T08:29:27;9.63;;;6.82;;
40609;SDS011;26316;55.976;37.140;2022-12-07T08:31:53;9.38;;;6.68;;
40609;SDS011;26316;55.976;37.140;2022-12-07T08:34:18;10.07;;;6.70;;
40609;SDS011;26316;55.976;37.140;2022-12-07T08:36:44;7.22;;;6.07;;
40609;SDS011;26316;55.976;37.140;2022-12-07T08:39:10;8.05;;;6.88;;
40609;SDS011;26316;55.976;37.140;2022-12-07T08:41:36;7.50;;;6.28;;
40609;SDS011;26316;55.976;37.140;2022-12-07T08:44:03;13.02;;;6.97;;
40609;SDS011;26316;55.976;37.140;2022-12-07T08:46:39;11.38;;;7.38;;
40609;SDS011;26316;55.976;37.140;2022-12-07T08:49:28;13.38;;;7.15;;
40609;SDS011;26316;55.976;37.140;2022-12-07T08:51:58;8.70;;;6.70;;
40609;SDS011;26316;55.976;37.140;2022-12-07T08:54:23;8.75;;;6.28;;
40609;SDS011;26316;55.976;37.140;2022-12-07T08:56:49;6.28;;;5.45;;
40609;SDS011;26316;55.976;37.140;2022-12-07T08:59:19;10.07;;;6.33;;
40609;SDS011;26316;55.976;37.140;2022-12-07T09:01:45;8.07;;;6.05;;
40609;SDS011;26316;55.976;37.140;2022-12-07T09:04:12;6.95;;;6.18;;
40609;SDS011;26316;55.976;37.140;2022-12-07T09:06:38;17.00;;;6.75;;
40609;SDS011;26316;55.976;37.140;2022-12-07T09:09:03;10.30;;;6.38;;
40609;SDS011;26316;55.976;37.140;2022-12-07T09:11:29;8.95;;;6.00;;
40609;SDS011;26316;55.976;37.140;2022-12-07T09:13:55;7.68;;;6.20;;
40609;SDS011;26316;55.976;37.140;2022-12-07T09:16:21;9.85;;;5.93;;
40609;SDS011;26316;55.976;37.140;2022-12-07T09:18:46;8.07;;;6.30;;
40609;SDS011;26316;55.976;37.140;2022-12-07T09:21:12;6.60;;;5.90;;
40609;SDS011;26316;55.976;37.140;2022-12-07T09:23:38;11.68;;;6.55;;
40609;SDS011;26316;55.976;37.140;2022-12-07T09:26:03;8.05;;;6.28;;
40609;SDS011;26316;55.976;37.140;2022-12-07T09:28:30;7.80;;;6.78;;
40609;SDS011;26316;55.976;37.140;2022-12-07T09:30:56;8.43;;;6.65;;
40609;SDS011;26316;55.976;37.140;2022-12-07T09:33:21;9.00;;;7.28;;
40609;SDS011;26316;55.976;37.140;2022-12-07T09:35:47;10.93;;;7.22;;
40609;SDS011;26316;55.976;37.140;2022-12-07T09:38:14;9.10;;;7.07;;
40609;SDS011;26316;55.976;37.140;2022-12-07T09:40:40;10.23;;;7.15;;
40609;SDS011;26316;55.976;37.140;2022-12-07T09:43:27;9.00;;;7.28;;
40609;SDS011;26316;55.976;37.140;2022-12-07T09:45:56;12.27;;;7.43;;
40609;SDS011;26316;55.976;37.140;2022-12-07T09:48:40;9.90;;;7.03;;
40609;SDS011;26316;55.976;37.140;2022-12-07T09:51:20;12.98;;;7.43;;
40609;SDS011;26316;55.976;37.140;2022-12-07T09:53:48;8.95;;;6.32;;
40609;SDS011;26316;55.976;37.140;2022-12-07T09:56:15;8.88;;;7.13;;
40609;SDS011;26316;55.976;37.140;2022-12-07T09:58:43;10.15;;;7.65;;
40609;SDS011;26316;55.976;37.140;2022-12-07T10:03:49;10.35;;;7.70;;
40609;SDS011;26316;55.976;37.140;2022-12-07T10:06:17;11.40;;;7.43;;
40609;SDS011;26316;55.976;37.140;2022-12-07T10:08:43;12.20;;;7.50;;
40609;SDS011;26316;55.976;37.140;2022-12-07T10:11:09;8.95;;;7.18;;
40609;SDS011;26316;55.976;37.140;2022-12-07T10:16:05;7.82;;;6.72;;
40609;SDS011;26316;55.976;37.140;2022-12-07T10:18:36;12.10;;;6.60;;
40609;SDS011;26316;55.976;37.140;2022-12-07T10:21:11;8.63;;;6.85;;
40609;SDS011;26316;55.976;37.140;2022-12-07T10:23:39;8.83;;;6.90;;
40609;SDS011;26316;55.976;37.140;2022-12-07T10:26:20;10.88;;;7.07;;
40609;SDS011;26316;55.976;37.140;2022-12-07T10:28:47;8.73;;;7.45;;
40609;SDS011;26316;55.976;37.140;2022-12-07T10:31:17;9.32;;;7.82;;
40609;SDS011;26316;55.976;37.140;2022-12-07T10:33:49;16.10;;;8.27;;
40609;SDS011;26316;55.976;37.140;2022-12-07T10:39:02;10.40;;;6.90;;
40609;SDS011;26316;55.976;37.140;2022-12-07T10:41:54;14.52;;;6.93;;
40609;SDS011;26316;55.976;37.140;2022-12-07T10:44:22;11.25;;;7.45;;
40609;SDS011;26316;55.976;37.140;2022-12-07T10:49:33;9.00;;;7.80;;
40609;SDS011;26316;55.976;37.140;2022-12-07T10:52:14;9.73;;;6.63;;
40609;SDS011;26316;55.976;37.140;2022-12-07T11:00:16;9.02;;;7.35;;
40609;SDS011;26316;55.976;37.140;2022-12-07T11:02:54;10.43;;;6.85;;
40609;SDS011;26316;55.976;37.140;2022-12-07T11:10:59;11.52;;;7.43;;
40609;SDS011;26316;55.976;37.140;2022-12-07T11:16:02;12.52;;;7.70;;
40609;SDS011;26316;55.976;37.140;2022-12-07T11:21:58;10.00;;;7.25;;
40609;SDS011;26316;55.976;37.140;2022-12-07T11:24:40;11.40;;;7.18;;
40609;SDS011;26316;55.976;37.140;2022-12-07T11:30:03;14.25;;;7.70;;
40609;SDS011;26316;55.976;37.140;2022-12-07T11:37:55;12.82;;;8.00;;
40609;SDS011;26316;55.976;37.140;2022-12-07T11:40:28;11.00;;;8.02;;
40609;SDS011;26316;55.976;37.140;2022-12-07T11:43:01;11.85;;;7.53;;
40609;SDS011;26316;55.976;37.140;2022-12-07T11:45:34;13.23;;;7.70;;
40609;SDS011;26316;55.976;37.140;2022-12-07T11:48:09;10.93;;;7.32;;
40609;SDS011;26316;55.976;37.140;2022-12-07T11:50:48;10.77;;;7.38;;
40609;SDS011;26316;55.976;37.140;2022-12-07T12:00:54;12.52;;;8.18;;
40609;SDS011;26316;55.976;37.140;2022-12-07T12:03:29;15.80;;;8.23;;
40609;SDS011;26316;55.976;37.140;2022-12-07T12:08:25;13.07;;;9.50;;
40609;SDS011;26316;55.976;37.140;2022-12-07T12:14:00;16.80;;;9.00;;
40609;SDS011;26316;55.976;37.140;2022-12-07T12:19:23;14.00;;;8.85;;
40609;SDS011;26316;55.976;37.140;2022-12-07T12:22:02;10.55;;;8.20;;
40609;SDS011;26316;55.976;37.140;2022-12-07T12:24:43;17.88;;;8.88;;
40609;SDS011;26316;55.976;37.140;2022-12-07T12:27:53;17.27;;;9.68;;
40609;SDS011;26316;55.976;37.140;2022-12-07T12:30:02;13.50;;;9.07;;
40609;SDS011;26316;55.976;37.140;2022-12-07T12:37:53;19.58;;;10.48;;
40609;SDS011;26316;55.976;37.140;2022-12-07T12:42:46;18.85;;;9.50;;
40609;SDS011;26316;55.976;37.140;2022-12-07T12:45:26;17.08;;;9.57;;
40609;SDS011;26316;55.976;37.140;2022-12-07T12:48:02;21.02;;;10.35;;
40609;SDS011;26316;55.976;37.140;2022-12-07T12:50:47;17.20;;;8.98;;
40609;SDS011;26316;55.976;37.140;2022-12-07T12:59:23;15.25;;;9.90;;
40609;SDS011;26316;55.976;37.140;2022-12-07T13:20:58;15.85;;;10.90;;
40609;SDS011;26316;55.976;37.140;2022-12-07T13:26:18;21.35;;;11.32;;
40609;SDS011;26316;55.976;37.140;2022-12-07T13:31:36;18.42;;;12.00;;
40609;SDS011;26316;55.976;37.140;2022-12-07T13:34:05;19.30;;;11.60;;
40609;SDS011;26316;55.976;37.140;2022-12-07T13:36:51;18.85;;;11.50;;
40609;SDS011;26316;55.976;37.140;2022-12-07T13:39:18;25.27;;;11.80;;
40609;SDS011;26316;55.976;37.140;2022-12-07T13:41:54;19.02;;;11.60;;
40609;SDS011;26316;55.976;37.140;2022-12-07T13:44:22;18.33;;;11.65;;
40609;SDS011;26316;55.976;37.140;2022-12-07T13:49:48;21.25;;;13.13;;
40609;SDS011;26316;55.976;37.140;2022-12-07T13:52:18;19.65;;;12.75;;
40609;SDS011;26316;55.976;37.140;2022-12-07T13:57:11;19.15;;;12.40;;
40609;SDS011;26316;55.976;37.140;2022-12-07T13:59:37;18.83;;;12.30;;
40609;SDS011;26316;55.976;37.140;2022-12-07T14:02:17;19.08;;;12.95;;
40609;SDS011;26316;55.976;37.140;2022-12-07T14:04:45;19.92;;;12.20;;
40609;SDS011;26316;55.976;37.140;2022-12-07T14:07:21;21.38;;;12.55;;
40609;SDS011;26316;55.976;37.140;2022-12-07T14:10:01;18.88;;;12.57;;
40609;SDS011;26316;55.976;37.140;2022-12-07T14:12:30;19.20;;;11.77;;
40609;SDS011;26316;55.976;37.140;2022-12-07T14:14:56;18.85;;;12.73;;
40609;SDS011;26316;55.976;37.140;2022-12-07T14:17:23;21.42;;;13.13;;
40609;SDS011;26316;55.976;37.140;2022-12-07T14:19:54;19.17;;;12.73;;
40609;SDS011;26316;55.976;37.140;2022-12-07T14:22:28;21.73;;;13.82;;
40609;SDS011;26316;55.976;37.140;2022-12-07T14:27:38;20.80;;;12.75;;
40609;SDS011;26316;55.976;37.140;2022-12-07T14:30:04;17.35;;;13.38;;
40609;SDS011;26316;55.976;37.140;2022-12-07T14:32:31;18.60;;;12.82;;
40609;SDS011;26316;55.976;37.140;2022-12-07T14:37:25;18.70;;;12.00;;
40609;SDS011;26316;55.976;37.140;2022-12-07T14:39:51;17.10;;;11.90;;
40609;SDS011;26316;55.976;37.140;2022-12-07T14:42:17;16.38;;;12.07;;
40609;SDS011;26316;55.976;37.140;2022-12-07T14:44:43;14.70;;;11.32;;
40609;SDS011;26316;55.976;37.140;2022-12-07T14:47:12;14.20;;;11.23;;
40609;SDS011;26316;55.976;37.140;2022-12-07T14:49:38;15.35;;;10.75;;
40609;SDS011;26316;55.976;37.140;2022-12-07T14:52:04;13.57;;;9.88;;
40609;SDS011;26316;55.976;37.140;2022-12-07T14:54:30;15.65;;;10.60;;
40609;SDS011;26316;55.976;37.140;2022-12-07T14:56:57;16.27;;;11.10;;
40609;SDS011;26316;55.976;37.140;2022-12-07T14:59:29;16.55;;;11.27;;
40609;SDS011;26316;55.976;37.140;2022-12-07T15:01:56;12.25;;;10.48;;
40609;SDS011;26316;55.976;37.140;2022-12-07T15:04:21;12.45;;;10.57;;
40609;SDS011;26316;55.976;37.140;2022-12-07T15:06:56;13.30;;;10.30;;
40609;SDS011;26316;55.976;37.140;2022-12-07T15:09:22;17.50;;;11.27;;
40609;SDS011;26316;55.976;37.140;2022-12-07T15:11:48;16.48;;;11.00;;
40609;SDS011;26316;55.976;37.140;2022-12-07T15:14:14;12.82;;;10.45;;
40609;SDS011;26316;55.976;37.140;2022-12-07T15:16:40;14.00;;;11.10;;
40609;SDS011;26316;55.976;37.140;2022-12-07T15:19:11;13.65;;;11.10;;
40609;SDS011;26316;55.976;37.140;2022-12-07T15:21:39;15.43;;;10.45;;
40609;SDS011;26316;55.976;37.140;2022-12-07T15:24:05;12.05;;;10.50;;
40609;SDS011;26316;55.976;37.140;2022-12-07T15:26:31;12.65;;;10.80;;
40609;SDS011;26316;55.976;37.140;2022-12-07T15:28:57;12.57;;;10.98;;
40609;SDS011;26316;55.976;37.140;2022-12-07T15:31:23;14.52;;;10.68;;
40609;SDS011;26316;55.976;37.140;2022-12-07T15:33:48;18.10;;;10.82;;
40609;SDS011;26316;55.976;37.140;2022-12-07T15:36:21;14.40;;;11.57;;
40609;SDS011;26316;55.976;37.140;2022-12-07T15:38:49;16.80;;;10.98;;
40609;SDS011;26316;55.976;37.140;2022-12-07T15:41:15;11.98;;;9.93;;
40609;SDS011;26316;55.976;37.140;2022-12-07T15:43:40;16.77;;;10.93;;
40609;SDS011;26316;55.976;37.140;2022-12-07T15:46:32;15.43;;;11.23;;
40609;SDS011;26316;55.976;37.140;2022-12-07T15:48:59;13.88;;;10.38;;
40609;SDS011;26316;55.976;37.140;2022-12-07T15:51:25;12.55;;;10.20;;
40609;SDS011;26316;55.976;37.140;2022-12-07T15:53:51;14.15;;;10.57;;
40609;SDS011;26316;55.976;37.140;2022-12-07T15:56:17;15.65;;;11.23;;
40609;SDS011;26316;55.976;37.140;2022-12-07T15:58:43;13.45;;;10.98;;
40609;SDS011;26316;55.976;37.140;2022-12-07T16:01:16;15.45;;;11.23;;
40609;SDS011;26316;55.976;37.140;2022-12-07T16:03:43;16.52;;;12.25;;
40609;SDS011;26316;55.976;37.140;2022-12-07T16:06:09;17.95;;;12.18;;
40609;SDS011;26316;55.976;37.140;2022-12-07T16:08:36;29.33;;;12.40;;
40609;SDS011;26316;55.976;37.140;2022-12-07T16:11:05;20.58;;;12.20;;
40609;SDS011;26316;55.976;37.140;2022-12-07T16:13:32;19.90;;;12.27;;
40609;SDS011;26316;55.976;37.140;2022-12-07T16:15:58;16.13;;;11.02;;
40609;SDS011;26316;55.976;37.140;2022-12-07T16:18:23;18.65;;;12.35;;
40609;SDS011;26316;55.976;37.140;2022-12-07T16:20:49;20.00;;;12.70;;
40609;SDS011;26316;55.976;37.140;2022-12-07T16:23:15;15.75;;;11.43;;
40609;SDS011;26316;55.976;37.140;2022-12-07T16:25:41;17.42;;;12.70;;
40609;SDS011;26316;55.976;37.140;2022-12-07T16:28:07;15.73;;;11.55;;
40609;SDS011;26316;55.976;37.140;2022-12-07T16:30:33;18.25;;;12.23;;
40609;SDS011;26316;55.976;37.140;2022-12-07T16:32:59;20.02;;;12.75;;
40609;SDS011;26316;55.976;37.140;2022-12-07T16:35:25;17.27;;;12.02;;
40609;SDS011;26316;55.976;37.140;2022-12-07T16:37:50;16.60;;;12.50;;
40609;SDS011;26316;55.976;37.140;2022-12-07T16:40:16;18.98;;;12.60;;
40609;SDS011;26316;55.976;37.140;2022-12-07T16:42:42;20.60;;;13.07;;
40609;SDS011;26316;55.976;37.140;2022-12-07T16:45:07;17.52;;;12.70;;
40609;SDS011;26316;55.976;37.140;2022-12-07T16:47:36;18.40;;;12.25;;
40609;SDS011;26316;55.976;37.140;2022-12-07T16:50:02;19.00;;;12.33;;
40609;SDS011;26316;55.976;37.140;2022-12-07T16:52:29;16.35;;;12.45;;
40609;SDS011;26316;55.976;37.140;2022-12-07T16:54:54;18.17;;;12.07;;
40609;SDS011;26316;55.976;37.140;2022-12-07T16:57:20;14.43;;;11.07;;